sensor_id;sensor_type;location;lat;lon;timestamp;P1;durP1;ratioP1;P2;durP2;ratioP2
77146;SDS011;66121;52.584;9.694;2023-04-03T00:00:52;3.90;;;1.83;;
77146;SDS011;66121;52.584;9.694;2023-04-03T00:03:18;7.13;;;2.60;;
77146;SDS011;66121;52.584;9.694;2023-04-03T00:05:44;8.23;;;2.13;;
77146;SDS011;66121;52.584;9.694;2023-04-03T00:08:10;5.97;;;2.20;;
77146;SDS011;66121;52.584;9.694;2023-04-03T00:10:35;4.87;;;2.10;;
77146;SDS011;66121;52.584;9.694;2023-04-03T00:13:02;8.65;;;2.28;;
77146;SDS011;66121;52.584;9.694;2023-04-03T00:15:28;5.20;;;2.03;;
77146;SDS011;66121;52.584;9.694;2023-04-03T00:17:54;6.27;;;2.00;;
77146;SDS011;66121;52.584;9.694;2023-04-03T00:20:19;6.63;;;1.92;;
77146;SDS011;66121;52.584;9.694;2023-04-03T00:22:45;8.85;;;1.90;;
77146;SDS011;66121;52.584;9.694;2023-04-03T00:25:10;3.78;;;1.73;;
77146;SDS011;66121;52.584;9.694;2023-04-03T00:27:37;1.93;;;1.77;;
77146;SDS011;66121;52.584;9.694;2023-04-03T00:30:03;5.72;;;1.98;;
77146;SDS011;66121;52.584;9.694;2023-04-03T00:32:28;4.93;;;1.73;;
77146;SDS011;66121;52.584;9.694;2023-04-03T00:34:54;6.17;;;2.60;;
77146;SDS011;66121;52.584;9.694;2023-04-03T00:37:19;6.45;;;2.55;;
77146;SDS011;66121;52.584;9.694;2023-04-03T00:39:44;5.03;;;2.20;;
77146;SDS011;66121;52.584;9.694;2023-04-03T00:42:10;5.97;;;2.33;;
77146;SDS011;66121;52.584;9.694;2023-04-03T00:47:01;5.60;;;2.07;;
77146;SDS011;66121;52.584;9.694;2023-04-03T00:49:30;5.00;;;2.35;;
77146;SDS011;66121;52.584;9.694;2023-04-03T00:51:56;6.72;;;2.10;;
77146;SDS011;66121;52.584;9.694;2023-04-03T00:54:22;7.63;;;2.50;;
77146;SDS011;66121;52.584;9.694;2023-04-03T00:56:48;6.15;;;2.35;;
77146;SDS011;66121;52.584;9.694;2023-04-03T00:59:16;5.18;;;1.98;;
77146;SDS011;66121;52.584;9.694;2023-04-03T01:01:48;3.30;;;1.70;;
77146;SDS011;66121;52.584;9.694;2023-04-03T01:07:14;7.85;;;1.90;;
77146;SDS011;66121;52.584;9.694;2023-04-03T01:09:42;4.18;;;1.60;;
77146;SDS011;66121;52.584;9.694;2023-04-03T01:12:16;6.03;;;2.28;;
77146;SDS011;66121;52.584;9.694;2023-04-03T01:14:44;4.47;;;2.30;;
77146;SDS011;66121;52.584;9.694;2023-04-03T01:23:06;6.40;;;2.38;;
77146;SDS011;66121;52.584;9.694;2023-04-03T01:25:48;4.60;;;1.88;;
77146;SDS011;66121;52.584;9.694;2023-04-03T01:28:20;5.18;;;2.70;;
77146;SDS011;66121;52.584;9.694;2023-04-03T01:33:31;7.03;;;2.63;;
77146;SDS011;66121;52.584;9.694;2023-04-03T01:35:57;5.25;;;2.40;;
77146;SDS011;66121;52.584;9.694;2023-04-03T01:38:23;8.67;;;2.60;;
77146;SDS011;66121;52.584;9.694;2023-04-03T01:40:48;9.10;;;2.45;;
77146;SDS011;66121;52.584;9.694;2023-04-03T01:43:14;4.97;;;1.97;;
77146;SDS011;66121;52.584;9.694;2023-04-03T01:45:39;7.53;;;2.37;;
77146;SDS011;66121;52.584;9.694;2023-04-03T01:48:04;4.53;;;2.40;;
77146;SDS011;66121;52.584;9.694;2023-04-03T01:50:30;5.30;;;2.10;;
77146;SDS011;66121;52.584;9.694;2023-04-03T01:52:55;4.70;;;1.92;;
77146;SDS011;66121;52.584;9.694;2023-04-03T01:55:21;6.03;;;2.58;;
77146;SDS011;66121;52.584;9.694;2023-04-03T01:57:46;6.38;;;2.20;;
77146;SDS011;66121;52.584;9.694;2023-04-03T02:00:12;6.35;;;2.45;;
77146;SDS011;66121;52.584;9.694;2023-04-03T02:02:37;3.97;;;2.10;;
77146;SDS011;66121;52.584;9.694;2023-04-03T02:05:03;4.20;;;1.93;;
77146;SDS011;66121;52.584;9.694;2023-04-03T02:07:28;5.82;;;2.00;;
77146;SDS011;66121;52.584;9.694;2023-04-03T02:09:53;5.20;;;2.50;;
77146;SDS011;66121;52.584;9.694;2023-04-03T02:12:19;6.22;;;2.08;;
77146;SDS011;66121;52.584;9.694;2023-04-03T02:14:44;7.90;;;2.22;;
77146;SDS011;66121;52.584;9.694;2023-04-03T02:17:10;6.10;;;2.22;;
77146;SDS011;66121;52.584;9.694;2023-04-03T02:19:35;7.80;;;2.57;;
77146;SDS011;66121;52.584;9.694;2023-04-03T02:22:04;4.32;;;1.60;;
77146;SDS011;66121;52.584;9.694;2023-04-03T02:24:29;4.43;;;2.03;;
77146;SDS011;66121;52.584;9.694;2023-04-03T02:26:55;3.90;;;1.80;;
77146;SDS011;66121;52.584;9.694;2023-04-03T02:29:20;5.73;;;2.33;;
77146;SDS011;66121;52.584;9.694;2023-04-03T02:31:46;7.22;;;2.10;;
77146;SDS011;66121;52.584;9.694;2023-04-03T02:34:11;5.17;;;2.07;;
77146;SDS011;66121;52.584;9.694;2023-04-03T02:36:36;8.18;;;2.38;;
77146;SDS011;66121;52.584;9.694;2023-04-03T02:39:02;8.18;;;3.03;;
77146;SDS011;66121;52.584;9.694;2023-04-03T02:41:28;6.05;;;2.15;;
77146;SDS011;66121;52.584;9.694;2023-04-03T02:43:59;6.53;;;2.10;;
77146;SDS011;66121;52.584;9.694;2023-04-03T02:46:25;5.57;;;2.35;;
77146;SDS011;66121;52.584;9.694;2023-04-03T02:48:50;6.85;;;2.15;;
77146;SDS011;66121;52.584;9.694;2023-04-03T02:51:15;5.63;;;1.93;;
77146;SDS011;66121;52.584;9.694;2023-04-03T02:53:41;6.83;;;2.13;;
77146;SDS011;66121;52.584;9.694;2023-04-03T02:56:06;3.97;;;1.87;;
77146;SDS011;66121;52.584;9.694;2023-04-03T02:58:31;4.80;;;1.70;;
77146;SDS011;66121;52.584;9.694;2023-04-03T03:00:57;10.07;;;2.20;;
77146;SDS011;66121;52.584;9.694;2023-04-03T03:03:22;3.90;;;1.57;;
77146;SDS011;66121;52.584;9.694;2023-04-03T03:05:48;5.07;;;2.00;;
77146;SDS011;66121;52.584;9.694;2023-04-03T03:08:13;4.38;;;1.58;;
77146;SDS011;66121;52.584;9.694;2023-04-03T03:10:38;3.50;;;1.70;;
77146;SDS011;66121;52.584;9.694;2023-04-03T03:13:04;2.95;;;1.77;;
77146;SDS011;66121;52.584;9.694;2023-04-03T03:15:29;4.85;;;2.00;;
77146;SDS011;66121;52.584;9.694;2023-04-03T03:17:55;4.83;;;2.03;;
77146;SDS011;66121;52.584;9.694;2023-04-03T03:20:20;3.78;;;1.73;;
77146;SDS011;66121;52.584;9.694;2023-04-03T03:22:46;4.25;;;2.10;;
77146;SDS011;66121;52.584;9.694;2023-04-03T03:25:11;7.43;;;2.20;;
77146;SDS011;66121;52.584;9.694;2023-04-03T03:27:36;4.80;;;1.73;;
77146;SDS011;66121;52.584;9.694;2023-04-03T03:30:02;6.90;;;1.90;;
77146;SDS011;66121;52.584;9.694;2023-04-03T03:32:27;5.25;;;1.77;;
77146;SDS011;66121;52.584;9.694;2023-04-03T03:34:53;5.03;;;2.20;;
77146;SDS011;66121;52.584;9.694;2023-04-03T03:37:18;4.90;;;2.00;;
77146;SDS011;66121;52.584;9.694;2023-04-03T03:39:43;7.93;;;2.00;;
77146;SDS011;66121;52.584;9.694;2023-04-03T03:42:08;7.57;;;1.53;;
77146;SDS011;66121;52.584;9.694;2023-04-03T03:44:34;4.83;;;1.70;;
77146;SDS011;66121;52.584;9.694;2023-04-03T03:46:59;6.22;;;1.90;;
77146;SDS011;66121;52.584;9.694;2023-04-03T03:49:24;5.70;;;2.00;;
77146;SDS011;66121;52.584;9.694;2023-04-03T03:51:50;3.25;;;1.52;;
77146;SDS011;66121;52.584;9.694;2023-04-03T03:54:15;6.30;;;1.73;;
77146;SDS011;66121;52.584;9.694;2023-04-03T03:56:41;10.40;;;2.05;;
77146;SDS011;66121;52.584;9.694;2023-04-03T03:59:06;4.00;;;1.83;;
77146;SDS011;66121;52.584;9.694;2023-04-03T04:01:31;12.13;;;4.27;;
77146;SDS011;66121;52.584;9.694;2023-04-03T04:03:57;6.65;;;2.15;;
77146;SDS011;66121;52.584;9.694;2023-04-03T04:06:22;6.28;;;1.92;;
77146;SDS011;66121;52.584;9.694;2023-04-03T04:08:48;6.18;;;1.90;;
77146;SDS011;66121;52.584;9.694;2023-04-03T04:11:13;9.67;;;1.80;;
77146;SDS011;66121;52.584;9.694;2023-04-03T04:13:39;7.90;;;2.42;;
77146;SDS011;66121;52.584;9.694;2023-04-03T04:16:05;14.73;;;4.10;;
77146;SDS011;66121;52.584;9.694;2023-04-03T04:18:31;21.23;;;9.00;;
77146;SDS011;66121;52.584;9.694;2023-04-03T04:20:56;19.83;;;7.40;;
77146;SDS011;66121;52.584;9.694;2023-04-03T04:23:22;13.38;;;5.43;;
77146;SDS011;66121;52.584;9.694;2023-04-03T04:25:47;15.17;;;5.33;;
77146;SDS011;66121;52.584;9.694;2023-04-03T04:28:14;7.43;;;4.93;;
77146;SDS011;66121;52.584;9.694;2023-04-03T04:30:39;7.90;;;3.67;;
77146;SDS011;66121;52.584;9.694;2023-04-03T04:33:05;11.73;;;4.78;;
77146;SDS011;66121;52.584;9.694;2023-04-03T04:35:31;9.70;;;6.53;;
77146;SDS011;66121;52.584;9.694;2023-04-03T04:37:57;10.00;;;5.72;;
77146;SDS011;66121;52.584;9.694;2023-04-03T04:40:22;8.90;;;5.77;;
77146;SDS011;66121;52.584;9.694;2023-04-03T04:42:47;7.18;;;5.60;;
77146;SDS011;66121;52.584;9.694;2023-04-03T04:45:13;6.50;;;4.47;;
77146;SDS011;66121;52.584;9.694;2023-04-03T04:47:39;7.68;;;4.80;;
77146;SDS011;66121;52.584;9.694;2023-04-03T04:50:05;6.10;;;4.70;;
77146;SDS011;66121;52.584;9.694;2023-04-03T04:52:31;7.75;;;3.47;;
77146;SDS011;66121;52.584;9.694;2023-04-03T04:54:56;7.00;;;3.78;;
77146;SDS011;66121;52.584;9.694;2023-04-03T04:57:22;7.00;;;3.53;;
77146;SDS011;66121;52.584;9.694;2023-04-03T04:59:47;5.37;;;3.20;;
77146;SDS011;66121;52.584;9.694;2023-04-03T05:02:12;6.63;;;3.38;;
77146;SDS011;66121;52.584;9.694;2023-04-03T05:04:38;11.25;;;3.05;;
77146;SDS011;66121;52.584;9.694;2023-04-03T05:07:03;6.33;;;2.70;;
77146;SDS011;66121;52.584;9.694;2023-04-03T05:09:28;5.57;;;2.13;;
77146;SDS011;66121;52.584;9.694;2023-04-03T05:11:53;5.00;;;2.33;;
77146;SDS011;66121;52.584;9.694;2023-04-03T05:14:19;3.22;;;1.80;;
77146;SDS011;66121;52.584;9.694;2023-04-03T05:16:44;4.85;;;2.17;;
77146;SDS011;66121;52.584;9.694;2023-04-03T05:19:10;5.53;;;2.10;;
77146;SDS011;66121;52.584;9.694;2023-04-03T05:21:35;4.43;;;2.00;;
77146;SDS011;66121;52.584;9.694;2023-04-03T05:24:01;5.32;;;2.00;;
77146;SDS011;66121;52.584;9.694;2023-04-03T05:26:28;5.30;;;2.53;;
77146;SDS011;66121;52.584;9.694;2023-04-03T05:28:54;4.15;;;2.05;;
77146;SDS011;66121;52.584;9.694;2023-04-03T05:31:20;9.32;;;2.90;;
77146;SDS011;66121;52.584;9.694;2023-04-03T05:33:45;6.67;;;2.00;;
77146;SDS011;66121;52.584;9.694;2023-04-03T05:36:11;7.72;;;2.85;;
77146;SDS011;66121;52.584;9.694;2023-04-03T05:38:37;6.80;;;2.15;;
77146;SDS011;66121;52.584;9.694;2023-04-03T05:41:03;5.47;;;1.70;;
77146;SDS011;66121;52.584;9.694;2023-04-03T05:43:28;8.13;;;2.53;;
77146;SDS011;66121;52.584;9.694;2023-04-03T05:45:53;6.78;;;1.75;;
77146;SDS011;66121;52.584;9.694;2023-04-03T05:48:19;3.28;;;1.75;;
77146;SDS011;66121;52.584;9.694;2023-04-03T05:50:45;6.20;;;1.95;;
77146;SDS011;66121;52.584;9.694;2023-04-03T05:53:13;4.63;;;1.63;;
77146;SDS011;66121;52.584;9.694;2023-04-03T05:55:43;4.28;;;1.70;;
77146;SDS011;66121;52.584;9.694;2023-04-03T05:58:08;5.57;;;1.90;;
77146;SDS011;66121;52.584;9.694;2023-04-03T06:00:33;7.47;;;2.10;;
77146;SDS011;66121;52.584;9.694;2023-04-03T06:02:58;6.45;;;2.00;;
77146;SDS011;66121;52.584;9.694;2023-04-03T06:05:24;5.00;;;1.75;;
77146;SDS011;66121;52.584;9.694;2023-04-03T06:07:49;5.07;;;1.77;;
77146;SDS011;66121;52.584;9.694;2023-04-03T06:10:15;8.35;;;2.13;;
77146;SDS011;66121;52.584;9.694;2023-04-03T06:12:40;3.63;;;1.65;;
77146;SDS011;66121;52.584;9.694;2023-04-03T06:15:06;4.20;;;1.90;;
77146;SDS011;66121;52.584;9.694;2023-04-03T06:17:34;7.22;;;2.58;;
77146;SDS011;66121;52.584;9.694;2023-04-03T06:20:00;6.38;;;2.15;;
77146;SDS011;66121;52.584;9.694;2023-04-03T06:22:25;11.73;;;2.00;;
77146;SDS011;66121;52.584;9.694;2023-04-03T06:24:51;4.18;;;1.77;;
77146;SDS011;66121;52.584;9.694;2023-04-03T06:27:16;4.67;;;1.80;;
77146;SDS011;66121;52.584;9.694;2023-04-03T06:29:42;6.25;;;2.22;;
77146;SDS011;66121;52.584;9.694;2023-04-03T06:32:08;10.00;;;2.20;;
77146;SDS011;66121;52.584;9.694;2023-04-03T06:34:33;8.00;;;2.15;;
77146;SDS011;66121;52.584;9.694;2023-04-03T06:36:58;6.33;;;2.43;;
77146;SDS011;66121;52.584;9.694;2023-04-03T06:39:24;4.22;;;1.88;;
77146;SDS011;66121;52.584;9.694;2023-04-03T06:41:49;7.70;;;1.90;;
77146;SDS011;66121;52.584;9.694;2023-04-03T06:44:15;5.55;;;1.60;;
77146;SDS011;66121;52.584;9.694;2023-04-03T06:46:41;3.35;;;1.70;;
77146;SDS011;66121;52.584;9.694;2023-04-03T06:49:08;9.70;;;2.42;;
77146;SDS011;66121;52.584;9.694;2023-04-03T06:51:34;3.28;;;1.52;;
77146;SDS011;66121;52.584;9.694;2023-04-03T06:54:00;7.70;;;1.67;;
77146;SDS011;66121;52.584;9.694;2023-04-03T06:56:27;2.33;;;1.45;;
77146;SDS011;66121;52.584;9.694;2023-04-03T06:58:53;7.35;;;1.70;;
77146;SDS011;66121;52.584;9.694;2023-04-03T07:01:22;8.60;;;2.30;;
77146;SDS011;66121;52.584;9.694;2023-04-03T07:03:50;5.70;;;1.92;;
77146;SDS011;66121;52.584;9.694;2023-04-03T07:06:16;6.93;;;1.73;;
77146;SDS011;66121;52.584;9.694;2023-04-03T07:08:42;6.63;;;2.17;;
77146;SDS011;66121;52.584;9.694;2023-04-03T07:11:07;5.72;;;1.70;;
77146;SDS011;66121;52.584;9.694;2023-04-03T07:13:34;3.28;;;1.50;;
77146;SDS011;66121;52.584;9.694;2023-04-03T07:15:59;4.25;;;1.45;;
77146;SDS011;66121;52.584;9.694;2023-04-03T07:18:25;7.18;;;1.77;;
77146;SDS011;66121;52.584;9.694;2023-04-03T07:20:51;6.10;;;1.90;;
77146;SDS011;66121;52.584;9.694;2023-04-03T07:23:16;4.10;;;1.77;;
77146;SDS011;66121;52.584;9.694;2023-04-03T07:25:43;4.63;;;1.90;;
77146;SDS011;66121;52.584;9.694;2023-04-03T07:28:09;5.15;;;2.17;;
77146;SDS011;66121;52.584;9.694;2023-04-03T07:30:34;9.18;;;2.33;;
77146;SDS011;66121;52.584;9.694;2023-04-03T07:32:59;3.60;;;1.33;;
77146;SDS011;66121;52.584;9.694;2023-04-03T07:35:25;4.35;;;1.67;;
77146;SDS011;66121;52.584;9.694;2023-04-03T07:37:51;3.72;;;1.60;;
77146;SDS011;66121;52.584;9.694;2023-04-03T07:40:16;3.33;;;1.50;;
77146;SDS011;66121;52.584;9.694;2023-04-03T07:42:42;6.63;;;1.27;;
77146;SDS011;66121;52.584;9.694;2023-04-03T07:45:07;3.30;;;1.17;;
77146;SDS011;66121;52.584;9.694;2023-04-03T07:47:33;3.85;;;1.60;;
77146;SDS011;66121;52.584;9.694;2023-04-03T07:49:58;4.10;;;2.00;;
77146;SDS011;66121;52.584;9.694;2023-04-03T07:52:24;5.13;;;1.50;;
77146;SDS011;66121;52.584;9.694;2023-04-03T07:54:50;4.35;;;1.40;;
77146;SDS011;66121;52.584;9.694;2023-04-03T07:57:15;4.03;;;1.43;;
77146;SDS011;66121;52.584;9.694;2023-04-03T07:59:41;4.25;;;1.40;;
77146;SDS011;66121;52.584;9.694;2023-04-03T08:02:10;4.30;;;1.10;;
77146;SDS011;66121;52.584;9.694;2023-04-03T08:04:36;3.38;;;1.38;;
77146;SDS011;66121;52.584;9.694;2023-04-03T08:07:01;5.37;;;2.00;;
77146;SDS011;66121;52.584;9.694;2023-04-03T08:09:27;3.65;;;1.13;;
77146;SDS011;66121;52.584;9.694;2023-04-03T08:11:52;2.58;;;1.42;;
77146;SDS011;66121;52.584;9.694;2023-04-03T08:14:19;3.85;;;1.25;;
77146;SDS011;66121;52.584;9.694;2023-04-03T08:16:45;2.00;;;1.13;;
77146;SDS011;66121;52.584;9.694;2023-04-03T08:19:12;2.40;;;1.25;;
77146;SDS011;66121;52.584;9.694;2023-04-03T08:21:39;5.05;;;1.75;;
77146;SDS011;66121;52.584;9.694;2023-04-03T08:24:06;7.22;;;1.42;;
77146;SDS011;66121;52.584;9.694;2023-04-03T08:26:32;2.58;;;1.25;;
77146;SDS011;66121;52.584;9.694;2023-04-03T08:28:57;2.97;;;1.33;;
77146;SDS011;66121;52.584;9.694;2023-04-03T08:31:22;5.70;;;1.60;;
77146;SDS011;66121;52.584;9.694;2023-04-03T08:33:48;3.37;;;1.33;;
77146;SDS011;66121;52.584;9.694;2023-04-03T08:36:18;4.32;;;1.48;;
77146;SDS011;66121;52.584;9.694;2023-04-03T08:38:48;5.50;;;1.55;;
77146;SDS011;66121;52.584;9.694;2023-04-03T08:41:35;5.43;;;1.30;;
77146;SDS011;66121;52.584;9.694;2023-04-03T08:50:04;2.85;;;1.42;;
77146;SDS011;66121;52.584;9.694;2023-04-03T08:55:46;6.93;;;1.40;;
77146;SDS011;66121;52.584;9.694;2023-04-03T08:58:19;2.60;;;1.20;;
77146;SDS011;66121;52.584;9.694;2023-04-03T09:00:48;6.65;;;1.40;;
77146;SDS011;66121;52.584;9.694;2023-04-03T09:03:17;3.65;;;1.35;;
77146;SDS011;66121;52.584;9.694;2023-04-03T09:05:47;2.80;;;1.42;;
77146;SDS011;66121;52.584;9.694;2023-04-03T09:08:30;3.78;;;1.40;;
77146;SDS011;66121;52.584;9.694;2023-04-03T09:16:54;4.05;;;1.65;;
77146;SDS011;66121;52.584;9.694;2023-04-03T09:21:58;3.55;;;1.27;;
77146;SDS011;66121;52.584;9.694;2023-04-03T09:24:27;2.38;;;1.00;;
77146;SDS011;66121;52.584;9.694;2023-04-03T09:26:54;3.00;;;1.10;;
77146;SDS011;66121;52.584;9.694;2023-04-03T09:29:25;3.15;;;1.30;;
77146;SDS011;66121;52.584;9.694;2023-04-03T09:31:56;3.28;;;1.17;;
77146;SDS011;66121;52.584;9.694;2023-04-03T09:37:05;4.57;;;1.55;;
77146;SDS011;66121;52.584;9.694;2023-04-03T09:39:52;5.75;;;1.13;;
77146;SDS011;66121;52.584;9.694;2023-04-03T09:42:20;6.88;;;1.20;;
77146;SDS011;66121;52.584;9.694;2023-04-03T09:45:00;3.85;;;1.00;;
77146;SDS011;66121;52.584;9.694;2023-04-03T09:47:28;2.47;;;1.20;;
77146;SDS011;66121;52.584;9.694;2023-04-03T09:52:43;4.78;;;1.30;;
77146;SDS011;66121;52.584;9.694;2023-04-03T09:55:15;5.22;;;1.30;;
77146;SDS011;66121;52.584;9.694;2023-04-03T09:57:52;1.50;;;1.10;;
77146;SDS011;66121;52.584;9.694;2023-04-03T10:00:23;4.38;;;1.23;;
77146;SDS011;66121;52.584;9.694;2023-04-03T10:02:52;2.45;;;1.13;;
77146;SDS011;66121;52.584;9.694;2023-04-03T10:05:36;2.42;;;1.10;;
77146;SDS011;66121;52.584;9.694;2023-04-03T10:08:09;2.15;;;0.85;;
77146;SDS011;66121;52.584;9.694;2023-04-03T10:10:44;3.63;;;1.35;;
77146;SDS011;66121;52.584;9.694;2023-04-03T10:13:16;2.05;;;1.02;;
77146;SDS011;66121;52.584;9.694;2023-04-03T10:18:27;7.07;;;1.50;;
77146;SDS011;66121;52.584;9.694;2023-04-03T10:21:13;2.15;;;0.95;;
77146;SDS011;66121;52.584;9.694;2023-04-03T10:23:50;5.32;;;1.20;;
77146;SDS011;66121;52.584;9.694;2023-04-03T10:29:13;5.78;;;1.35;;
77146;SDS011;66121;52.584;9.694;2023-04-03T10:34:42;2.60;;;0.98;;
77146;SDS011;66121;52.584;9.694;2023-04-03T10:40:05;4.55;;;1.52;;
77146;SDS011;66121;52.584;9.694;2023-04-03T10:42:59;1.83;;;0.98;;
77146;SDS011;66121;52.584;9.694;2023-04-03T10:48:11;2.97;;;1.30;;
77146;SDS011;66121;52.584;9.694;2023-04-03T10:51:08;2.45;;;1.35;;
77146;SDS011;66121;52.584;9.694;2023-04-03T10:56:32;4.65;;;1.40;;
77146;SDS011;66121;52.584;9.694;2023-04-03T11:04:35;2.15;;;1.10;;
77146;SDS011;66121;52.584;9.694;2023-04-03T11:10:08;1.52;;;1.10;;
77146;SDS011;66121;52.584;9.694;2023-04-03T11:12:42;3.33;;;1.33;;
77146;SDS011;66121;52.584;9.694;2023-04-03T11:15:12;4.60;;;1.23;;
77146;SDS011;66121;52.584;9.694;2023-04-03T11:17:45;4.43;;;1.40;;
77146;SDS011;66121;52.584;9.694;2023-04-03T11:20:23;4.50;;;1.35;;
77146;SDS011;66121;52.584;9.694;2023-04-03T11:23:00;2.35;;;1.50;;
77146;SDS011;66121;52.584;9.694;2023-04-03T11:25:32;1.90;;;1.08;;
77146;SDS011;66121;52.584;9.694;2023-04-03T11:28:00;4.38;;;1.40;;
77146;SDS011;66121;52.584;9.694;2023-04-03T11:30:47;4.25;;;1.50;;
77146;SDS011;66121;52.584;9.694;2023-04-03T11:36:00;2.17;;;1.27;;
77146;SDS011;66121;52.584;9.694;2023-04-03T11:38:31;2.50;;;1.23;;
77146;SDS011;66121;52.584;9.694;2023-04-03T11:41:01;1.85;;;1.35;;
77146;SDS011;66121;52.584;9.694;2023-04-03T11:43:29;3.38;;;1.10;;
77146;SDS011;66121;52.584;9.694;2023-04-03T11:45:59;2.03;;;1.10;;
77146;SDS011;66121;52.584;9.694;2023-04-03T11:50:59;2.22;;;1.60;;
77146;SDS011;66121;52.584;9.694;2023-04-03T11:53:46;2.45;;;1.30;;
77146;SDS011;66121;52.584;9.694;2023-04-03T11:59:36;5.72;;;1.55;;
77146;SDS011;66121;52.584;9.694;2023-04-03T12:01:57;4.82;;;1.10;;
77146;SDS011;66121;52.584;9.694;2023-04-03T12:04:24;1.80;;;1.20;;
77146;SDS011;66121;52.584;9.694;2023-04-03T12:09:28;3.30;;;1.35;;
77146;SDS011;66121;52.584;9.694;2023-04-03T12:12:21;2.28;;;1.05;;
77146;SDS011;66121;52.584;9.694;2023-04-03T12:14:48;3.85;;;1.20;;
77146;SDS011;66121;52.584;9.694;2023-04-03T12:17:22;2.03;;;1.70;;
77146;SDS011;66121;52.584;9.694;2023-04-03T12:19:51;5.53;;;1.50;;
77146;SDS011;66121;52.584;9.694;2023-04-03T12:22:18;3.80;;;1.40;;
77146;SDS011;66121;52.584;9.694;2023-04-03T12:24:46;3.83;;;1.38;;
77146;SDS011;66121;52.584;9.694;2023-04-03T12:27:21;2.72;;;1.30;;
77146;SDS011;66121;52.584;9.694;2023-04-03T12:32:35;3.63;;;1.40;;
77146;SDS011;66121;52.584;9.694;2023-04-03T12:38:40;2.40;;;1.35;;
77146;SDS011;66121;52.584;9.694;2023-04-03T12:46:42;2.60;;;1.45;;
77146;SDS011;66121;52.584;9.694;2023-04-03T12:51:53;2.28;;;1.15;;
77146;SDS011;66121;52.584;9.694;2023-04-03T12:54:21;4.07;;;1.40;;
77146;SDS011;66121;52.584;9.694;2023-04-03T12:56:50;3.00;;;1.30;;
77146;SDS011;66121;52.584;9.694;2023-04-03T12:59:18;2.38;;;1.40;;
77146;SDS011;66121;52.584;9.694;2023-04-03T13:01:59;3.00;;;1.50;;
77146;SDS011;66121;52.584;9.694;2023-04-03T13:04:26;2.45;;;1.40;;
77146;SDS011;66121;52.584;9.694;2023-04-03T13:06:53;2.42;;;1.50;;
77146;SDS011;66121;52.584;9.694;2023-04-03T13:11:47;3.60;;;2.05;;
77146;SDS011;66121;52.584;9.694;2023-04-03T13:14:16;1.25;;;1.02;;
77146;SDS011;66121;52.584;9.694;2023-04-03T13:17:00;2.33;;;1.50;;
77146;SDS011;66121;52.584;9.694;2023-04-03T13:19:41;3.38;;;1.35;;
77146;SDS011;66121;52.584;9.694;2023-04-03T13:22:11;3.22;;;1.30;;
77146;SDS011;66121;52.584;9.694;2023-04-03T13:24:43;2.30;;;1.23;;
77146;SDS011;66121;52.584;9.694;2023-04-03T13:27:11;4.43;;;1.30;;
77146;SDS011;66121;52.584;9.694;2023-04-03T13:29:37;3.80;;;1.48;;
77146;SDS011;66121;52.584;9.694;2023-04-03T13:32:04;2.65;;;1.27;;
77146;SDS011;66121;52.584;9.694;2023-04-03T13:34:38;3.63;;;1.40;;
77146;SDS011;66121;52.584;9.694;2023-04-03T13:37:07;2.60;;;1.42;;
77146;SDS011;66121;52.584;9.694;2023-04-03T13:39:44;5.88;;;1.70;;
77146;SDS011;66121;52.584;9.694;2023-04-03T13:42:20;3.33;;;1.30;;
77146;SDS011;66121;52.584;9.694;2023-04-03T13:44:48;2.13;;;1.30;;
77146;SDS011;66121;52.584;9.694;2023-04-03T13:47:37;2.42;;;1.20;;
77146;SDS011;66121;52.584;9.694;2023-04-03T13:50:13;2.60;;;1.55;;
77146;SDS011;66121;52.584;9.694;2023-04-03T13:55:32;6.65;;;2.13;;
77146;SDS011;66121;52.584;9.694;2023-04-03T13:58:16;2.78;;;1.33;;
77146;SDS011;66121;52.584;9.694;2023-04-03T14:00:48;3.35;;;1.23;;
77146;SDS011;66121;52.584;9.694;2023-04-03T14:05:59;3.97;;;1.40;;
77146;SDS011;66121;52.584;9.694;2023-04-03T14:08:26;3.47;;;1.40;;
77146;SDS011;66121;52.584;9.694;2023-04-03T14:10:52;2.38;;;1.30;;
77146;SDS011;66121;52.584;9.694;2023-04-03T14:13:18;3.25;;;1.45;;
77146;SDS011;66121;52.584;9.694;2023-04-03T14:15:46;3.88;;;1.10;;
77146;SDS011;66121;52.584;9.694;2023-04-03T14:18:13;2.95;;;1.25;;
77146;SDS011;66121;52.584;9.694;2023-04-03T14:20:42;3.05;;;1.23;;
77146;SDS011;66121;52.584;9.694;2023-04-03T14:23:08;3.22;;;1.65;;
77146;SDS011;66121;52.584;9.694;2023-04-03T14:25:35;2.38;;;1.73;;
77146;SDS011;66121;52.584;9.694;2023-04-03T14:28:01;2.50;;;1.23;;
77146;SDS011;66121;52.584;9.694;2023-04-03T14:30:30;2.85;;;1.42;;
77146;SDS011;66121;52.584;9.694;2023-04-03T14:32:58;2.85;;;1.20;;
77146;SDS011;66121;52.584;9.694;2023-04-03T14:35:24;1.48;;;1.08;;
77146;SDS011;66121;52.584;9.694;2023-04-03T14:37:51;5.60;;;1.67;;
77146;SDS011;66121;52.584;9.694;2023-04-03T14:40:26;5.57;;;1.70;;
77146;SDS011;66121;52.584;9.694;2023-04-03T14:42:52;2.85;;;1.50;;
77146;SDS011;66121;52.584;9.694;2023-04-03T14:45:20;3.17;;;1.10;;
77146;SDS011;66121;52.584;9.694;2023-04-03T14:47:46;6.82;;;1.45;;
77146;SDS011;66121;52.584;9.694;2023-04-03T14:50:24;4.50;;;1.67;;
77146;SDS011;66121;52.584;9.694;2023-04-03T14:52:51;2.55;;;1.48;;
77146;SDS011;66121;52.584;9.694;2023-04-03T14:55:20;4.30;;;1.63;;
77146;SDS011;66121;52.584;9.694;2023-04-03T14:57:46;4.50;;;1.42;;
77146;SDS011;66121;52.584;9.694;2023-04-03T15:00:13;2.38;;;1.33;;
77146;SDS011;66121;52.584;9.694;2023-04-03T15:02:41;3.08;;;1.40;;
77146;SDS011;66121;52.584;9.694;2023-04-03T15:05:07;2.78;;;1.27;;
77146;SDS011;66121;52.584;9.694;2023-04-03T15:07:36;1.70;;;0.93;;
77146;SDS011;66121;52.584;9.694;2023-04-03T15:10:21;3.63;;;1.38;;
77146;SDS011;66121;52.584;9.694;2023-04-03T15:12:49;3.75;;;1.33;;
77146;SDS011;66121;52.584;9.694;2023-04-03T15:15:15;3.60;;;1.52;;
77146;SDS011;66121;52.584;9.694;2023-04-03T15:17:42;5.15;;;1.50;;
77146;SDS011;66121;52.584;9.694;2023-04-03T15:20:13;4.25;;;2.38;;
77146;SDS011;66121;52.584;9.694;2023-04-03T15:22:43;3.58;;;1.33;;
77146;SDS011;66121;52.584;9.694;2023-04-03T15:25:08;2.55;;;1.38;;
77146;SDS011;66121;52.584;9.694;2023-04-03T15:27:35;4.10;;;1.95;;
77146;SDS011;66121;52.584;9.694;2023-04-03T15:30:00;3.42;;;1.30;;
77146;SDS011;66121;52.584;9.694;2023-04-03T15:32:26;2.17;;;1.35;;
77146;SDS011;66121;52.584;9.694;2023-04-03T15:34:51;4.05;;;1.70;;
77146;SDS011;66121;52.584;9.694;2023-04-03T15:37:19;3.20;;;1.40;;
77146;SDS011;66121;52.584;9.694;2023-04-03T15:39:44;4.03;;;1.23;;
77146;SDS011;66121;52.584;9.694;2023-04-03T15:42:09;2.50;;;1.40;;
77146;SDS011;66121;52.584;9.694;2023-04-03T15:44:35;2.75;;;1.42;;
77146;SDS011;66121;52.584;9.694;2023-04-03T15:47:00;4.43;;;1.30;;
77146;SDS011;66121;52.584;9.694;2023-04-03T15:49:27;4.25;;;2.00;;
77146;SDS011;66121;52.584;9.694;2023-04-03T15:51:52;3.70;;;1.38;;
77146;SDS011;66121;52.584;9.694;2023-04-03T15:54:17;3.17;;;1.38;;
77146;SDS011;66121;52.584;9.694;2023-04-03T15:56:43;3.83;;;1.85;;
77146;SDS011;66121;52.584;9.694;2023-04-03T15:59:08;3.15;;;1.48;;
77146;SDS011;66121;52.584;9.694;2023-04-03T16:01:34;4.38;;;1.73;;
77146;SDS011;66121;52.584;9.694;2023-04-03T16:04:00;2.95;;;1.40;;
77146;SDS011;66121;52.584;9.694;2023-04-03T16:06:26;6.13;;;1.60;;
77146;SDS011;66121;52.584;9.694;2023-04-03T16:08:54;3.60;;;1.50;;
77146;SDS011;66121;52.584;9.694;2023-04-03T16:11:22;6.85;;;1.67;;
77146;SDS011;66121;52.584;9.694;2023-04-03T16:13:51;5.07;;;1.70;;
77146;SDS011;66121;52.584;9.694;2023-04-03T16:16:17;8.15;;;1.50;;
77146;SDS011;66121;52.584;9.694;2023-04-03T16:18:42;2.25;;;1.48;;
77146;SDS011;66121;52.584;9.694;2023-04-03T16:21:08;5.85;;;1.60;;
77146;SDS011;66121;52.584;9.694;2023-04-03T16:23:34;4.35;;;1.80;;
77146;SDS011;66121;52.584;9.694;2023-04-03T16:26:00;7.05;;;2.00;;
77146;SDS011;66121;52.584;9.694;2023-04-03T16:28:25;4.07;;;1.83;;